sensor_id;sensor_type;location;lat;lon;timestamp;P1;durP1;ratioP1;P2;durP2;ratioP2
48765;SDS011;65794;51.836;5.002;2023-05-15T00:02:25;36.90;;;18.00;;
48765;SDS011;65794;51.836;5.002;2023-05-15T00:04:52;31.85;;;17.48;;
48765;SDS011;65794;51.836;5.002;2023-05-15T00:07:19;37.13;;;18.27;;
48765;SDS011;65794;51.836;5.002;2023-05-15T00:09:46;38.72;;;18.25;;
48765;SDS011;65794;51.836;5.002;2023-05-15T00:12:13;39.53;;;18.63;;
48765;SDS011;65794;51.836;5.002;2023-05-15T00:14:41;34.20;;;18.00;;
48765;SDS011;65794;51.836;5.002;2023-05-15T00:17:08;38.72;;;19.05;;
48765;SDS011;65794;51.836;5.002;2023-05-15T00:19:35;34.00;;;18.05;;
48765;SDS011;65794;51.836;5.002;2023-05-15T00:22:02;36.67;;;17.17;;
48765;SDS011;65794;51.836;5.002;2023-05-15T00:24:29;33.10;;;18.25;;
48765;SDS011;65794;51.836;5.002;2023-05-15T00:26:56;40.67;;;19.00;;
48765;SDS011;65794;51.836;5.002;2023-05-15T00:29:22;39.25;;;19.45;;
48765;SDS011;65794;51.836;5.002;2023-05-15T00:31:50;38.17;;;19.88;;
48765;SDS011;65794;51.836;5.002;2023-05-15T00:34:23;40.38;;;19.80;;
48765;SDS011;65794;51.836;5.002;2023-05-15T00:36:51;42.35;;;20.60;;
48765;SDS011;65794;51.836;5.002;2023-05-15T00:39:18;37.08;;;19.08;;
48765;SDS011;65794;51.836;5.002;2023-05-15T00:41:44;51.30;;;21.05;;
48765;SDS011;65794;51.836;5.002;2023-05-15T00:44:12;43.42;;;20.55;;
48765;SDS011;65794;51.836;5.002;2023-05-15T00:46:40;41.20;;;20.27;;
48765;SDS011;65794;51.836;5.002;2023-05-15T00:49:13;40.25;;;20.10;;
48765;SDS011;65794;51.836;5.002;2023-05-15T00:51:44;39.03;;;20.23;;
48765;SDS011;65794;51.836;5.002;2023-05-15T00:54:12;45.08;;;20.27;;
48765;SDS011;65794;51.836;5.002;2023-05-15T00:56:41;40.30;;;20.08;;
48765;SDS011;65794;51.836;5.002;2023-05-15T00:59:12;40.33;;;20.02;;
48765;SDS011;65794;51.836;5.002;2023-05-15T01:01:39;39.38;;;19.70;;
48765;SDS011;65794;51.836;5.002;2023-05-15T01:04:06;42.17;;;19.60;;
48765;SDS011;65794;51.836;5.002;2023-05-15T01:06:33;40.28;;;20.20;;
48765;SDS011;65794;51.836;5.002;2023-05-15T01:09:00;44.85;;;20.52;;
48765;SDS011;65794;51.836;5.002;2023-05-15T01:11:31;41.50;;;20.13;;
48765;SDS011;65794;51.836;5.002;2023-05-15T01:14:04;42.55;;;20.63;;
48765;SDS011;65794;51.836;5.002;2023-05-15T01:16:32;40.05;;;19.45;;
48765;SDS011;65794;51.836;5.002;2023-05-15T01:19:03;42.88;;;18.83;;
48765;SDS011;65794;51.836;5.002;2023-05-15T01:29:35;40.35;;;19.27;;
48765;SDS011;65794;51.836;5.002;2023-05-15T01:32:41;46.90;;;20.90;;
48765;SDS011;65794;51.836;5.002;2023-05-15T01:35:12;42.55;;;20.10;;
48765;SDS011;65794;51.836;5.002;2023-05-15T01:37:45;39.88;;;21.08;;
48765;SDS011;65794;51.836;5.002;2023-05-15T01:40:16;40.55;;;20.38;;
48765;SDS011;65794;51.836;5.002;2023-05-15T01:42:54;41.00;;;19.92;;
48765;SDS011;65794;51.836;5.002;2023-05-15T01:45:22;44.38;;;21.65;;
48765;SDS011;65794;51.836;5.002;2023-05-15T01:47:51;40.78;;;18.75;;
48765;SDS011;65794;51.836;5.002;2023-05-15T01:50:19;42.65;;;20.27;;
48765;SDS011;65794;51.836;5.002;2023-05-15T01:52:47;43.22;;;18.40;;
48765;SDS011;65794;51.836;5.002;2023-05-15T01:55:14;51.60;;;19.50;;
48765;SDS011;65794;51.836;5.002;2023-05-15T01:57:42;44.42;;;19.48;;
48765;SDS011;65794;51.836;5.002;2023-05-15T02:00:11;42.13;;;18.25;;
48765;SDS011;65794;51.836;5.002;2023-05-15T02:02:39;36.50;;;18.08;;
48765;SDS011;65794;51.836;5.002;2023-05-15T02:05:08;33.75;;;16.90;;
48765;SDS011;65794;51.836;5.002;2023-05-15T02:07:35;35.38;;;16.65;;
48765;SDS011;65794;51.836;5.002;2023-05-15T02:10:02;34.40;;;17.40;;
48765;SDS011;65794;51.836;5.002;2023-05-15T02:12:30;34.03;;;18.77;;
48765;SDS011;65794;51.836;5.002;2023-05-15T02:14:57;37.67;;;18.25;;
48765;SDS011;65794;51.836;5.002;2023-05-15T02:17:25;34.55;;;17.75;;
48765;SDS011;65794;51.836;5.002;2023-05-15T02:19:53;41.80;;;17.20;;
48765;SDS011;65794;51.836;5.002;2023-05-15T02:22:20;42.05;;;17.42;;
48765;SDS011;65794;51.836;5.002;2023-05-15T02:24:47;33.60;;;17.42;;
48765;SDS011;65794;51.836;5.002;2023-05-15T02:35:18;38.80;;;17.60;;
48765;SDS011;65794;51.836;5.002;2023-05-15T02:37:48;39.38;;;19.02;;
48765;SDS011;65794;51.836;5.002;2023-05-15T02:40:16;38.50;;;17.20;;
48765;SDS011;65794;51.836;5.002;2023-05-15T02:42:44;39.58;;;17.77;;
48765;SDS011;65794;51.836;5.002;2023-05-15T02:45:12;35.22;;;17.05;;
48765;SDS011;65794;51.836;5.002;2023-05-15T02:47:39;36.80;;;17.55;;
48765;SDS011;65794;51.836;5.002;2023-05-15T02:50:06;43.08;;;17.63;;
48765;SDS011;65794;51.836;5.002;2023-05-15T02:52:34;40.28;;;17.73;;
48765;SDS011;65794;51.836;5.002;2023-05-15T02:55:01;36.55;;;17.55;;
48765;SDS011;65794;51.836;5.002;2023-05-15T02:57:28;32.20;;;16.90;;
48765;SDS011;65794;51.836;5.002;2023-05-15T02:59:56;34.72;;;17.15;;
48765;SDS011;65794;51.836;5.002;2023-05-15T03:02:23;35.20;;;18.45;;
48765;SDS011;65794;51.836;5.002;2023-05-15T03:04:50;32.78;;;18.45;;
48765;SDS011;65794;51.836;5.002;2023-05-15T03:07:17;36.58;;;17.27;;
48765;SDS011;65794;51.836;5.002;2023-05-15T03:09:44;32.30;;;16.33;;
48765;SDS011;65794;51.836;5.002;2023-05-15T03:12:11;34.88;;;17.08;;
48765;SDS011;65794;51.836;5.002;2023-05-15T03:14:41;29.08;;;15.90;;
48765;SDS011;65794;51.836;5.002;2023-05-15T03:17:08;43.13;;;17.98;;
48765;SDS011;65794;51.836;5.002;2023-05-15T03:19:35;39.60;;;18.65;;
48765;SDS011;65794;51.836;5.002;2023-05-15T03:22:02;37.90;;;19.10;;
48765;SDS011;65794;51.836;5.002;2023-05-15T03:24:29;36.58;;;18.33;;
48765;SDS011;65794;51.836;5.002;2023-05-15T03:27:00;40.70;;;19.48;;
48765;SDS011;65794;51.836;5.002;2023-05-15T03:29:27;39.03;;;19.60;;
48765;SDS011;65794;51.836;5.002;2023-05-15T03:31:54;37.47;;;18.60;;
48765;SDS011;65794;51.836;5.002;2023-05-15T03:34:21;38.50;;;18.50;;
48765;SDS011;65794;51.836;5.002;2023-05-15T03:36:48;43.50;;;19.95;;
48765;SDS011;65794;51.836;5.002;2023-05-15T03:39:15;41.40;;;20.48;;
48765;SDS011;65794;51.836;5.002;2023-05-15T03:41:43;42.42;;;21.85;;
48765;SDS011;65794;51.836;5.002;2023-05-15T03:44:11;47.15;;;21.77;;
48765;SDS011;65794;51.836;5.002;2023-05-15T03:46:38;44.83;;;21.48;;
48765;SDS011;65794;51.836;5.002;2023-05-15T03:49:05;47.67;;;22.35;;
48765;SDS011;65794;51.836;5.002;2023-05-15T03:51:33;54.17;;;23.35;;
48765;SDS011;65794;51.836;5.002;2023-05-15T03:54:00;49.90;;;23.25;;
48765;SDS011;65794;51.836;5.002;2023-05-15T03:56:37;45.78;;;21.50;;
48765;SDS011;65794;51.836;5.002;2023-05-15T03:59:03;55.72;;;23.90;;
48765;SDS011;65794;51.836;5.002;2023-05-15T04:01:31;44.22;;;22.45;;
48765;SDS011;65794;51.836;5.002;2023-05-15T04:04:17;50.08;;;21.48;;
48765;SDS011;65794;51.836;5.002;2023-05-15T04:06:44;48.60;;;21.80;;
48765;SDS011;65794;51.836;5.002;2023-05-15T04:09:12;46.42;;;20.75;;
48765;SDS011;65794;51.836;5.002;2023-05-15T04:11:39;54.28;;;21.45;;
48765;SDS011;65794;51.836;5.002;2023-05-15T04:14:06;51.60;;;20.95;;
48765;SDS011;65794;51.836;5.002;2023-05-15T04:16:35;44.35;;;20.50;;
48765;SDS011;65794;51.836;5.002;2023-05-15T04:19:04;39.97;;;19.60;;
48765;SDS011;65794;51.836;5.002;2023-05-15T04:21:32;55.63;;;19.73;;
48765;SDS011;65794;51.836;5.002;2023-05-15T04:23:59;37.42;;;19.02;;
48765;SDS011;65794;51.836;5.002;2023-05-15T04:26:26;42.28;;;19.70;;
48765;SDS011;65794;51.836;5.002;2023-05-15T04:28:54;38.53;;;19.02;;
48765;SDS011;65794;51.836;5.002;2023-05-15T04:31:32;41.55;;;19.58;;
48765;SDS011;65794;51.836;5.002;2023-05-15T04:34:02;44.63;;;19.75;;
48765;SDS011;65794;51.836;5.002;2023-05-15T04:36:31;40.13;;;18.85;;
48765;SDS011;65794;51.836;5.002;2023-05-15T04:38:59;39.33;;;18.90;;
48765;SDS011;65794;51.836;5.002;2023-05-15T04:41:27;47.10;;;19.58;;
48765;SDS011;65794;51.836;5.002;2023-05-15T04:43:55;43.58;;;19.52;;
48765;SDS011;65794;51.836;5.002;2023-05-15T04:46:22;37.22;;;18.85;;
48765;SDS011;65794;51.836;5.002;2023-05-15T04:48:52;41.42;;;20.42;;
48765;SDS011;65794;51.836;5.002;2023-05-15T04:51:25;47.33;;;20.77;;
48765;SDS011;65794;51.836;5.002;2023-05-15T04:56:19;56.30;;;22.83;;
48765;SDS011;65794;51.836;5.002;2023-05-15T04:58:48;43.33;;;23.13;;
48765;SDS011;65794;51.836;5.002;2023-05-15T05:01:15;46.33;;;22.77;;
48765;SDS011;65794;51.836;5.002;2023-05-15T05:03:42;47.47;;;23.25;;
48765;SDS011;65794;51.836;5.002;2023-05-15T05:06:10;50.10;;;24.73;;
48765;SDS011;65794;51.836;5.002;2023-05-15T05:08:38;62.22;;;25.77;;
48765;SDS011;65794;51.836;5.002;2023-05-15T05:11:05;51.13;;;24.85;;
48765;SDS011;65794;51.836;5.002;2023-05-15T05:13:32;57.25;;;26.05;;
48765;SDS011;65794;51.836;5.002;2023-05-15T05:15:59;62.95;;;26.45;;
48765;SDS011;65794;51.836;5.002;2023-05-15T05:18:26;58.75;;;27.27;;
48765;SDS011;65794;51.836;5.002;2023-05-15T05:21:02;64.88;;;25.45;;
48765;SDS011;65794;51.836;5.002;2023-05-15T05:23:38;55.38;;;26.10;;
48765;SDS011;65794;51.836;5.002;2023-05-15T05:26:05;65.45;;;27.40;;
48765;SDS011;65794;51.836;5.002;2023-05-15T05:28:40;57.97;;;26.77;;
48765;SDS011;65794;51.836;5.002;2023-05-15T05:31:08;55.10;;;25.60;;
48765;SDS011;65794;51.836;5.002;2023-05-15T05:33:36;58.08;;;26.80;;
48765;SDS011;65794;51.836;5.002;2023-05-15T05:36:03;54.25;;;25.67;;
48765;SDS011;65794;51.836;5.002;2023-05-15T05:38:34;54.75;;;26.25;;
48765;SDS011;65794;51.836;5.002;2023-05-15T05:41:01;55.33;;;26.58;;
48765;SDS011;65794;51.836;5.002;2023-05-15T05:43:29;52.85;;;24.88;;
48765;SDS011;65794;51.836;5.002;2023-05-15T05:45:55;51.15;;;24.75;;
48765;SDS011;65794;51.836;5.002;2023-05-15T05:48:24;46.22;;;23.83;;
48765;SDS011;65794;51.836;5.002;2023-05-15T05:50:53;50.05;;;25.02;;
48765;SDS011;65794;51.836;5.002;2023-05-15T05:53:20;51.28;;;23.13;;
48765;SDS011;65794;51.836;5.002;2023-05-15T05:55:50;44.13;;;23.67;;
48765;SDS011;65794;51.836;5.002;2023-05-15T05:58:17;49.17;;;22.42;;
48765;SDS011;65794;51.836;5.002;2023-05-15T06:00:52;43.03;;;22.52;;
48765;SDS011;65794;51.836;5.002;2023-05-15T06:03:19;42.63;;;22.80;;
48765;SDS011;65794;51.836;5.002;2023-05-15T06:05:46;42.72;;;22.40;;
48765;SDS011;65794;51.836;5.002;2023-05-15T06:08:14;44.42;;;23.60;;
48765;SDS011;65794;51.836;5.002;2023-05-15T06:10:41;43.08;;;22.58;;
48765;SDS011;65794;51.836;5.002;2023-05-15T06:13:08;48.85;;;23.23;;
48765;SDS011;65794;51.836;5.002;2023-05-15T06:15:35;46.08;;;22.48;;
48765;SDS011;65794;51.836;5.002;2023-05-15T06:18:02;44.95;;;21.80;;
48765;SDS011;65794;51.836;5.002;2023-05-15T06:20:29;39.10;;;20.15;;
48765;SDS011;65794;51.836;5.002;2023-05-15T06:22:56;41.95;;;22.08;;
48765;SDS011;65794;51.836;5.002;2023-05-15T06:25:23;44.00;;;22.83;;
48765;SDS011;65794;51.836;5.002;2023-05-15T06:27:50;40.22;;;20.08;;
48765;SDS011;65794;51.836;5.002;2023-05-15T06:30:16;39.10;;;21.10;;
48765;SDS011;65794;51.836;5.002;2023-05-15T06:32:43;40.35;;;19.35;;
48765;SDS011;65794;51.836;5.002;2023-05-15T06:35:10;45.42;;;20.38;;
48765;SDS011;65794;51.836;5.002;2023-05-15T06:37:37;39.72;;;20.02;;
48765;SDS011;65794;51.836;5.002;2023-05-15T06:40:04;34.53;;;19.25;;
48765;SDS011;65794;51.836;5.002;2023-05-15T06:42:32;34.50;;;18.90;;
48765;SDS011;65794;51.836;5.002;2023-05-15T06:44:59;39.15;;;18.88;;
48765;SDS011;65794;51.836;5.002;2023-05-15T06:47:28;31.90;;;18.48;;
48765;SDS011;65794;51.836;5.002;2023-05-15T06:49:54;41.47;;;19.48;;
48765;SDS011;65794;51.836;5.002;2023-05-15T06:52:22;32.20;;;17.63;;
48765;SDS011;65794;51.836;5.002;2023-05-15T06:54:49;33.58;;;17.48;;
48765;SDS011;65794;51.836;5.002;2023-05-15T06:57:18;32.42;;;18.30;;
48765;SDS011;65794;51.836;5.002;2023-05-15T06:59:45;33.15;;;16.98;;
48765;SDS011;65794;51.836;5.002;2023-05-15T07:02:12;35.95;;;17.23;;
48765;SDS011;65794;51.836;5.002;2023-05-15T07:04:38;31.20;;;17.35;;
48765;SDS011;65794;51.836;5.002;2023-05-15T07:07:06;32.67;;;16.13;;
48765;SDS011;65794;51.836;5.002;2023-05-15T07:09:33;31.08;;;17.15;;
48765;SDS011;65794;51.836;5.002;2023-05-15T07:12:03;30.25;;;16.23;;
48765;SDS011;65794;51.836;5.002;2023-05-15T07:14:30;30.02;;;16.83;;
48765;SDS011;65794;51.836;5.002;2023-05-15T07:16:57;28.17;;;17.15;;
48765;SDS011;65794;51.836;5.002;2023-05-15T07:19:24;32.03;;;17.08;;
48765;SDS011;65794;51.836;5.002;2023-05-15T07:21:51;31.95;;;16.30;;
48765;SDS011;65794;51.836;5.002;2023-05-15T07:24:18;26.95;;;15.38;;
48765;SDS011;65794;51.836;5.002;2023-05-15T07:26:46;25.55;;;15.48;;
48765;SDS011;65794;51.836;5.002;2023-05-15T07:29:24;32.13;;;17.15;;
48765;SDS011;65794;51.836;5.002;2023-05-15T07:31:55;28.92;;;15.30;;
48765;SDS011;65794;51.836;5.002;2023-05-15T07:34:22;28.35;;;15.70;;
48765;SDS011;65794;51.836;5.002;2023-05-15T07:36:49;23.80;;;14.50;;
48765;SDS011;65794;51.836;5.002;2023-05-15T07:39:16;29.85;;;19.45;;
48765;SDS011;65794;51.836;5.002;2023-05-15T07:41:46;27.27;;;16.02;;
48765;SDS011;65794;51.836;5.002;2023-05-15T07:44:13;25.95;;;15.48;;
48765;SDS011;65794;51.836;5.002;2023-05-15T07:46:40;26.73;;;15.57;;
48765;SDS011;65794;51.836;5.002;2023-05-15T07:49:17;30.92;;;15.65;;
48765;SDS011;65794;51.836;5.002;2023-05-15T07:51:45;31.95;;;19.45;;
48765;SDS011;65794;51.836;5.002;2023-05-15T07:54:13;27.40;;;15.52;;
48765;SDS011;65794;51.836;5.002;2023-05-15T07:56:40;28.10;;;15.05;;
48765;SDS011;65794;51.836;5.002;2023-05-15T07:59:09;26.25;;;15.13;;
48765;SDS011;65794;51.836;5.002;2023-05-15T08:04:14;28.85;;;15.90;;
48765;SDS011;65794;51.836;5.002;2023-05-15T08:06:41;29.65;;;15.30;;
48765;SDS011;65794;51.836;5.002;2023-05-15T08:09:10;25.98;;;13.98;;
48765;SDS011;65794;51.836;5.002;2023-05-15T08:11:38;29.90;;;15.25;;
48765;SDS011;65794;51.836;5.002;2023-05-15T08:14:05;26.75;;;15.32;;
48765;SDS011;65794;51.836;5.002;2023-05-15T08:16:41;25.58;;;14.85;;
48765;SDS011;65794;51.836;5.002;2023-05-15T08:19:19;29.17;;;15.73;;
48765;SDS011;65794;51.836;5.002;2023-05-15T08:21:47;29.30;;;16.63;;
48765;SDS011;65794;51.836;5.002;2023-05-15T08:24:15;28.00;;;14.95;;
48765;SDS011;65794;51.836;5.002;2023-05-15T08:26:45;33.60;;;16.05;;
48765;SDS011;65794;51.836;5.002;2023-05-15T08:29:12;31.15;;;16.75;;
48765;SDS011;65794;51.836;5.002;2023-05-15T08:31:39;34.50;;;16.92;;
48765;SDS011;65794;51.836;5.002;2023-05-15T08:34:06;33.60;;;17.02;;
48765;SDS011;65794;51.836;5.002;2023-05-15T08:36:33;30.17;;;15.40;;
48765;SDS011;65794;51.836;5.002;2023-05-15T08:42:07;33.35;;;15.75;;
48765;SDS011;65794;51.836;5.002;2023-05-15T08:44:37;27.80;;;15.55;;
48765;SDS011;65794;51.836;5.002;2023-05-15T08:47:06;27.30;;;15.63;;
48765;SDS011;65794;51.836;5.002;2023-05-15T08:52:07;32.35;;;17.45;;
48765;SDS011;65794;51.836;5.002;2023-05-15T08:54:35;30.20;;;16.17;;
48765;SDS011;65794;51.836;5.002;2023-05-15T08:57:02;30.17;;;15.43;;
48765;SDS011;65794;51.836;5.002;2023-05-15T08:59:30;29.90;;;16.63;;
48765;SDS011;65794;51.836;5.002;2023-05-15T09:01:57;27.00;;;15.40;;
48765;SDS011;65794;51.836;5.002;2023-05-15T09:04:23;36.83;;;16.63;;
48765;SDS011;65794;51.836;5.002;2023-05-15T09:06:51;34.15;;;16.75;;
48765;SDS011;65794;51.836;5.002;2023-05-15T09:09:18;30.23;;;16.00;;
48765;SDS011;65794;51.836;5.002;2023-05-15T09:11:46;30.42;;;16.10;;
48765;SDS011;65794;51.836;5.002;2023-05-15T09:14:14;32.25;;;16.05;;
48765;SDS011;65794;51.836;5.002;2023-05-15T09:16:41;32.17;;;16.55;;
48765;SDS011;65794;51.836;5.002;2023-05-15T09:19:10;29.42;;;15.75;;
48765;SDS011;65794;51.836;5.002;2023-05-15T09:21:38;28.83;;;15.77;;
48765;SDS011;65794;51.836;5.002;2023-05-15T09:26:43;29.27;;;16.70;;
48765;SDS011;65794;51.836;5.002;2023-05-15T09:29:10;30.23;;;16.35;;
48765;SDS011;65794;51.836;5.002;2023-05-15T09:31:38;29.05;;;16.50;;
48765;SDS011;65794;51.836;5.002;2023-05-15T09:34:06;33.40;;;17.30;;
48765;SDS011;65794;51.836;5.002;2023-05-15T09:36:35;32.10;;;17.02;;
48765;SDS011;65794;51.836;5.002;2023-05-15T09:39:10;36.63;;;17.08;;
48765;SDS011;65794;51.836;5.002;2023-05-15T09:41:40;34.65;;;17.13;;
48765;SDS011;65794;51.836;5.002;2023-05-15T09:44:10;33.20;;;16.98;;
48765;SDS011;65794;51.836;5.002;2023-05-15T09:46:56;36.85;;;16.48;;
48765;SDS011;65794;51.836;5.002;2023-05-15T09:49:23;35.85;;;17.48;;
48765;SDS011;65794;51.836;5.002;2023-05-15T09:51:50;32.55;;;17.02;;
48765;SDS011;65794;51.836;5.002;2023-05-15T09:54:18;35.95;;;18.55;;
48765;SDS011;65794;51.836;5.002;2023-05-15T09:56:45;36.30;;;17.88;;
48765;SDS011;65794;51.836;5.002;2023-05-15T09:59:13;38.40;;;17.60;;
48765;SDS011;65794;51.836;5.002;2023-05-15T10:01:53;34.83;;;19.13;;
48765;SDS011;65794;51.836;5.002;2023-05-15T10:04:20;39.53;;;18.17;;
48765;SDS011;65794;51.836;5.002;2023-05-15T10:06:47;39.65;;;17.45;;
48765;SDS011;65794;51.836;5.002;2023-05-15T10:09:15;39.28;;;19.08;;
48765;SDS011;65794;51.836;5.002;2023-05-15T10:11:43;36.40;;;18.95;;
48765;SDS011;65794;51.836;5.002;2023-05-15T10:14:11;42.28;;;21.42;;
48765;SDS011;65794;51.836;5.002;2023-05-15T10:16:39;47.40;;;21.92;;
48765;SDS011;65794;51.836;5.002;2023-05-15T10:19:07;46.88;;;22.70;;
48765;SDS011;65794;51.836;5.002;2023-05-15T10:21:35;45.13;;;23.30;;
48765;SDS011;65794;51.836;5.002;2023-05-15T10:24:03;44.53;;;22.52;;
48765;SDS011;65794;51.836;5.002;2023-05-15T10:26:35;52.67;;;23.00;;
48765;SDS011;65794;51.836;5.002;2023-05-15T10:29:10;48.08;;;23.13;;
48765;SDS011;65794;51.836;5.002;2023-05-15T10:31:38;52.45;;;23.48;;
48765;SDS011;65794;51.836;5.002;2023-05-15T10:34:05;53.30;;;23.33;;
48765;SDS011;65794;51.836;5.002;2023-05-15T10:36:33;50.85;;;22.45;;
48765;SDS011;65794;51.836;5.002;2023-05-15T10:39:01;52.35;;;24.80;;
48765;SDS011;65794;51.836;5.002;2023-05-15T10:41:32;52.40;;;24.13;;
48765;SDS011;65794;51.836;5.002;2023-05-15T10:44:01;49.70;;;21.90;;
48765;SDS011;65794;51.836;5.002;2023-05-15T10:46:38;50.38;;;22.63;;
48765;SDS011;65794;51.836;5.002;2023-05-15T10:49:05;47.22;;;21.75;;
48765;SDS011;65794;51.836;5.002;2023-05-15T10:51:33;49.53;;;23.98;;
48765;SDS011;65794;51.836;5.002;2023-05-15T10:54:05;53.40;;;23.10;;
48765;SDS011;65794;51.836;5.002;2023-05-15T10:56:37;52.30;;;22.98;;
48765;SDS011;65794;51.836;5.002;2023-05-15T10:59:06;50.78;;;24.38;;
48765;SDS011;65794;51.836;5.002;2023-05-15T11:01:34;53.78;;;24.60;;
48765;SDS011;65794;51.836;5.002;2023-05-15T11:06:35;58.03;;;26.48;;
48765;SDS011;65794;51.836;5.002;2023-05-15T11:12:00;74.35;;;31.38;;
48765;SDS011;65794;51.836;5.002;2023-05-15T11:14:27;73.57;;;30.58;;
48765;SDS011;65794;51.836;5.002;2023-05-15T11:16:58;74.13;;;31.40;;
48765;SDS011;65794;51.836;5.002;2023-05-15T11:19:36;75.68;;;31.50;;
48765;SDS011;65794;51.836;5.002;2023-05-15T11:27:16;62.22;;;28.35;;
48765;SDS011;65794;51.836;5.002;2023-05-15T11:35:55;51.03;;;23.52;;
48765;SDS011;65794;51.836;5.002;2023-05-15T11:38:18;46.42;;;22.70;;
48765;SDS011;65794;51.836;5.002;2023-05-15T11:43:23;43.45;;;20.88;;
48765;SDS011;65794;51.836;5.002;2023-05-15T11:45:51;37.28;;;19.33;;
48765;SDS011;65794;51.836;5.002;2023-05-15T11:48:18;35.67;;;18.10;;
48765;SDS011;65794;51.836;5.002;2023-05-15T11:50:46;33.78;;;17.65;;
48765;SDS011;65794;51.836;5.002;2023-05-15T11:53:13;31.58;;;16.25;;
48765;SDS011;65794;51.836;5.002;2023-05-15T11:55:41;27.15;;;15.25;;
48765;SDS011;65794;51.836;5.002;2023-05-15T11:58:09;35.70;;;17.70;;
48765;SDS011;65794;51.836;5.002;2023-05-15T12:00:37;34.38;;;16.38;;
48765;SDS011;65794;51.836;5.002;2023-05-15T12:03:04;31.23;;;16.10;;
48765;SDS011;65794;51.836;5.002;2023-05-15T12:05:31;31.77;;;15.68;;
48765;SDS011;65794;51.836;5.002;2023-05-15T12:07:58;26.73;;;14.02;;
48765;SDS011;65794;51.836;5.002;2023-05-15T12:10:26;24.05;;;13.75;;
48765;SDS011;65794;51.836;5.002;2023-05-15T12:12:53;29.42;;;15.30;;
48765;SDS011;65794;51.836;5.002;2023-05-15T12:15:20;27.50;;;14.80;;
48765;SDS011;65794;51.836;5.002;2023-05-15T12:17:47;28.98;;;15.52;;
48765;SDS011;65794;51.836;5.002;2023-05-15T12:20:17;31.05;;;15.75;;
48765;SDS011;65794;51.836;5.002;2023-05-15T12:25:11;28.10;;;14.93;;
48765;SDS011;65794;51.836;5.002;2023-05-15T12:27:38;29.15;;;13.95;;
48765;SDS011;65794;51.836;5.002;2023-05-15T12:30:06;20.52;;;11.73;;
48765;SDS011;65794;51.836;5.002;2023-05-15T12:32:34;28.58;;;11.90;;
48765;SDS011;65794;51.836;5.002;2023-05-15T12:35:02;23.38;;;10.15;;
48765;SDS011;65794;51.836;5.002;2023-05-15T12:37:31;17.25;;;9.07;;
48765;SDS011;65794;51.836;5.002;2023-05-15T12:40:00;15.25;;;7.47;;
48765;SDS011;65794;51.836;5.002;2023-05-15T12:42:27;18.60;;;8.05;;
48765;SDS011;65794;51.836;5.002;2023-05-15T12:44:56;14.35;;;6.88;;
48765;SDS011;65794;51.836;5.002;2023-05-15T12:47:24;13.63;;;5.85;;
48765;SDS011;65794;51.836;5.002;2023-05-15T12:49:55;12.20;;;5.88;;
48765;SDS011;65794;51.836;5.002;2023-05-15T12:52:22;10.95;;;5.45;;
48765;SDS011;65794;51.836;5.002;2023-05-15T12:54:49;11.40;;;5.32;;
48765;SDS011;65794;51.836;5.002;2023-05-15T12:57:16;16.60;;;6.32;;
48765;SDS011;65794;51.836;5.002;2023-05-15T12:59:43;14.43;;;6.95;;
48765;SDS011;65794;51.836;5.002;2023-05-15T13:02:11;21.08;;;6.90;;
48765;SDS011;65794;51.836;5.002;2023-05-15T13:04:38;14.80;;;6.70;;
48765;SDS011;65794;51.836;5.002;2023-05-15T13:07:05;13.20;;;6.25;;
48765;SDS011;65794;51.836;5.002;2023-05-15T13:09:33;14.40;;;5.88;;
48765;SDS011;65794;51.836;5.002;2023-05-15T13:12:01;14.18;;;5.78;;
48765;SDS011;65794;51.836;5.002;2023-05-15T13:14:32;18.73;;;6.65;;
48765;SDS011;65794;51.836;5.002;2023-05-15T13:17:07;16.38;;;5.82;;
48765;SDS011;65794;51.836;5.002;2023-05-15T13:19:34;14.90;;;6.20;;
48765;SDS011;65794;51.836;5.002;2023-05-15T13:22:01;13.90;;;5.68;;
48765;SDS011;65794;51.836;5.002;2023-05-15T13:24:28;16.02;;;6.15;;
48765;SDS011;65794;51.836;5.002;2023-05-15T13:26:56;15.27;;;6.28;;
48765;SDS011;65794;51.836;5.002;2023-05-15T13:29:23;13.02;;;5.50;;
48765;SDS011;65794;51.836;5.002;2023-05-15T13:31:53;9.98;;;5.13;;
48765;SDS011;65794;51.836;5.002;2023-05-15T13:34:20;10.18;;;4.32;;
48765;SDS011;65794;51.836;5.002;2023-05-15T13:36:47;10.57;;;4.55;;
48765;SDS011;65794;51.836;5.002;2023-05-15T13:39:14;12.57;;;4.07;;
48765;SDS011;65794;51.836;5.002;2023-05-15T13:41:42;17.67;;;4.07;;
48765;SDS011;65794;51.836;5.002;2023-05-15T13:44:14;13.65;;;4.18;;
48765;SDS011;65794;51.836;5.002;2023-05-15T13:46:41;15.77;;;4.13;;
48765;SDS011;65794;51.836;5.002;2023-05-15T13:49:20;12.77;;;4.78;;
48765;SDS011;65794;51.836;5.002;2023-05-15T13:51:47;15.48;;;4.00;;
48765;SDS011;65794;51.836;5.002;2023-05-15T13:54:14;13.88;;;4.05;;
48765;SDS011;65794;51.836;5.002;2023-05-15T13:56:41;13.65;;;3.83;;
48765;SDS011;65794;51.836;5.002;2023-05-15T13:59:13;9.10;;;3.70;;
48765;SDS011;65794;51.836;5.002;2023-05-15T14:01:39;15.13;;;3.40;;
48765;SDS011;65794;51.836;5.002;2023-05-15T14:04:08;10.00;;;2.90;;
48765;SDS011;65794;51.836;5.002;2023-05-15T14:06:35;14.90;;;3.30;;
48765;SDS011;65794;51.836;5.002;2023-05-15T14:09:02;7.80;;;3.08;;
48765;SDS011;65794;51.836;5.002;2023-05-15T14:11:34;16.33;;;3.40;;
48765;SDS011;65794;51.836;5.002;2023-05-15T14:14:01;10.20;;;3.20;;
48765;SDS011;65794;51.836;5.002;2023-05-15T14:16:28;7.00;;;2.78;;
48765;SDS011;65794;51.836;5.002;2023-05-15T14:18:59;9.82;;;3.35;;
48765;SDS011;65794;51.836;5.002;2023-05-15T14:21:29;16.98;;;3.40;;
48765;SDS011;65794;51.836;5.002;2023-05-15T14:23:58;12.10;;;3.15;;
48765;SDS011;65794;51.836;5.002;2023-05-15T14:26:29;10.98;;;2.83;;
48765;SDS011;65794;51.836;5.002;2023-05-15T14:28:58;10.57;;;2.85;;
48765;SDS011;65794;51.836;5.002;2023-05-15T14:31:25;14.32;;;2.85;;
48765;SDS011;65794;51.836;5.002;2023-05-15T14:33:52;6.53;;;2.20;;
48765;SDS011;65794;51.836;5.002;2023-05-15T14:36:21;7.38;;;2.35;;
48765;SDS011;65794;51.836;5.002;2023-05-15T14:38:48;4.55;;;2.05;;
48765;SDS011;65794;51.836;5.002;2023-05-15T14:41:15;10.23;;;2.20;;
48765;SDS011;65794;51.836;5.002;2023-05-15T14:43:41;10.15;;;2.33;;
48765;SDS011;65794;51.836;5.002;2023-05-15T14:46:10;7.68;;;2.33;;
48765;SDS011;65794;51.836;5.002;2023-05-15T14:48:37;7.55;;;2.20;;
48765;SDS011;65794;51.836;5.002;2023-05-15T14:51:05;5.97;;;2.28;;
48765;SDS011;65794;51.836;5.002;2023-05-15T14:53:34;6.82;;;2.35;;
48765;SDS011;65794;51.836;5.002;2023-05-15T14:56:01;7.20;;;2.38;;
48765;SDS011;65794;51.836;5.002;2023-05-15T14:58:29;7.10;;;2.60;;
48765;SDS011;65794;51.836;5.002;2023-05-15T15:00:56;4.95;;;2.03;;
48765;SDS011;65794;51.836;5.002;2023-05-15T15:03:23;8.05;;;2.35;;
48765;SDS011;65794;51.836;5.002;2023-05-15T15:05:53;5.57;;;2.53;;
48765;SDS011;65794;51.836;5.002;2023-05-15T15:08:20;6.20;;;2.13;;
48765;SDS011;65794;51.836;5.002;2023-05-15T15:10:47;7.25;;;2.22;;
48765;SDS011;65794;51.836;5.002;2023-05-15T15:13:14;11.02;;;2.55;;
48765;SDS011;65794;51.836;5.002;2023-05-15T15:15:42;4.47;;;2.13;;
48765;SDS011;65794;51.836;5.002;2023-05-15T15:18:09;8.20;;;2.65;;
48765;SDS011;65794;51.836;5.002;2023-05-15T15:20:36;6.80;;;1.88;;
48765;SDS011;65794;51.836;5.002;2023-05-15T15:23:03;5.88;;;2.10;;
48765;SDS011;65794;51.836;5.002;2023-05-15T15:25:31;6.45;;;2.03;;